Stations météo

Publicité
Chatillon/Seine, France (7276): Température de l'air & dewpoint: 17.01.2019 23:00:00 - 23.01.2019 23:00:00 (CET)Chatillon/Seine, France (7276): Vitesse du vent & gusts: 17.01.2019 23:00:00 - 23.01.2019 23:00:00 (CET)Chatillon/Seine, France (7276): Direction du vent: 17.01.2019 23:00:00 - 23.01.2019 23:00:00 (CET)Chatillon/Seine, France (7276): Ensoleillement: 17.01.2019 23:00:00 - 23.01.2019 23:00:00 (CET)Chatillon/Seine, France (7276): Quantités de précipitations: 17.01.2019 23:00:00 - 23.01.2019 23:00:00 (CET)
Date & Time tt [°C] td [°C] ff [km/h] ff [knt] fx [km/h] fx [knt] dd sd [min] rr [mm]
23.01.2019 23:00:00 - - - - - - - - -
23.01.2019 22:00:00 0,1 0,1 8 4 16 9 NNW 0 0,0
23.01.2019 21:00:00 0,0 0,0 5 3 13 7 NNW 0 0,0
23.01.2019 20:00:00 0,0 0,0 8 4 13 7 N 0 0,0
23.01.2019 19:00:00 0,1 -0,3 5 3 13 7 N 0 -
23.01.2019 18:00:00 -0,1 -0,2 8 4 9 5 NE 0 0,0
23.01.2019 17:00:00 0,3 0,3 5 3 8 4 NNE 0 0,0
23.01.2019 16:00:00 1,0 0,6 0 0 4 2 N 0 0,0
23.01.2019 15:00:00 0,9 0,3 4 2 13 7 WSW 0 0,0
23.01.2019 14:00:00 1,3 0,1 4 2 13 7 W 6 0,0
23.01.2019 13:00:00 0,9 0,2 5 3 16 9 W 0 -
23.01.2019 12:00:00 0,8 0,8 8 4 16 9 W 0 0,0
23.01.2019 11:00:00 0,5 0,5 4 2 11 6 W 0 0,0
23.01.2019 10:00:00 0,1 0,1 8 4 18 10 WNW 0 0,0
23.01.2019 09:00:00 -0,2 -0,2 4 2 13 7 SSW 0 0,0
23.01.2019 08:00:00 -0,3 -0,3 9 5 13 7 S 0 0,0
23.01.2019 07:00:00 -0,4 -0,4 8 4 18 10 SSW 0 -
23.01.2019 06:00:00 -0,4 -0,4 15 8 22 12 SSE 0 0,6
23.01.2019 05:00:00 -0,5 -0,5 15 8 22 12 SSE 0 0,0
23.01.2019 04:00:00 -0,6 -0,6 13 7 21 11 SSE 0 0,0
23.01.2019 03:00:00 -1,4 -1,4 8 4 13 7 SSE 0 0,0
23.01.2019 02:00:00 -0,5 -0,5 11 6 21 11 S 0 0,0
23.01.2019 01:00:00 -0,2 -0,2 13 7 22 12 S 0 -
23.01.2019 00:00:00 -0,1 -0,1 11 6 16 9 S 0 0,0
22.01.2019 23:00:00 -0,2 -0,2 8 4 15 8 SSW 0 0,0
22.01.2019 22:00:00 -0,2 -0,2 11 6 18 10 SW 0 0,0
22.01.2019 21:00:00 -0,3 -0,3 8 4 15 8 SW 0 0,0
22.01.2019 20:00:00 -0,6 -0,6 9 5 15 8 SSW 0 0,0
22.01.2019 19:00:00 -0,5 -0,5 11 6 15 8 S 0 -
22.01.2019 18:00:00 -0,6 -0,6 9 5 13 7 S 0 0,4
22.01.2019 17:00:00 -0,5 -0,5 8 4 15 8 S 0 0,4
22.01.2019 16:00:00 -0,5 -0,5 9 5 24 13 SSE 0 0,8
22.01.2019 15:00:00 0,4 -2,0 18 10 26 14 SSE 0 0,0
22.01.2019 14:00:00 -0,1 -2,0 16 9 26 14 SSE 0 0,0
22.01.2019 13:00:00 -0,1 -2,8 18 10 31 17 S 30 -
22.01.2019 12:00:00 -0,7 -3,2 18 10 29 16 S 48 0,0
22.01.2019 11:00:00 -1,1 -3,1 15 8 24 13 S 30 0,0
22.01.2019 10:00:00 -1,7 -3,1 15 8 22 12 SSE 54 0,0
22.01.2019 09:00:00 -3,4 -3,4 13 7 22 12 SSE 12 0,0
22.01.2019 08:00:00 -3,7 -4,1 9 5 22 12 SSE 0 0,0
22.01.2019 07:00:00 -2,8 -3,3 13 7 22 12 SSW 0 -
22.01.2019 06:00:00 -3,0 -3,0 15 8 24 13 S 0 0,0
22.01.2019 05:00:00 -3,3 -3,6 16 9 24 13 S 0 0,0
22.01.2019 04:00:00 -3,2 -3,5 15 8 26 14 S 0 0,0
22.01.2019 03:00:00 -2,9 -3,7 13 7 24 13 SSW 0 0,0
22.01.2019 02:00:00 -2,0 -2,8 13 7 18 10 S 0 0,0
22.01.2019 01:00:00 -1,7 -1,7 11 6 18 10 S 0 -
22.01.2019 00:00:00 -1,7 -1,7 5 3 11 6 SE 0 0,0
21.01.2019 23:00:00 -1,7 -1,7 4 2 9 5 SE 0 0,0
21.01.2019 22:00:00 -1,9 -1,9 0 0 5 3 N 0 0,0
21.01.2019 21:00:00 -2,0 -2,0 2 1 8 4 NW 0 0,0
21.01.2019 20:00:00 -2,0 -2,0 4 2 13 7 NW 0 0,0
21.01.2019 19:00:00 -1,7 -1,7 8 4 13 7 NW 0 -
21.01.2019 18:00:00 -1,5 -1,5 4 2 13 7 NNW 0 0,0
21.01.2019 17:00:00 -1,1 -1,2 2 1 8 4 N 0 0,0
21.01.2019 16:00:00 -0,9 -1,2 4 2 9 5 ENE 0 0,0
21.01.2019 15:00:00 -1,0 -1,0 5 3 15 8 NNE 0 0,0
21.01.2019 14:00:00 -1,1 -1,1 8 4 13 7 NW 0 0,0
21.01.2019 13:00:00 -1,2 -1,2 4 2 11 6 N 0 -
21.01.2019 12:00:00 -1,6 -1,6 4 2 11 6 ENE 0 6,0
21.01.2019 11:00:00 -1,9 -1,9 5 3 13 7 N 0 0,0
21.01.2019 10:00:00 -1,8 -1,8 8 4 13 7 N 0 0,0
21.01.2019 09:00:00 -1,9 -1,9 8 4 15 8 NW 0 0,0
21.01.2019 08:00:00 -1,9 -1,9 9 5 16 9 NW 0 0,0
21.01.2019 07:00:00 -1,4 -1,4 5 3 18 10 NW 0 -
21.01.2019 06:00:00 -0,7 -0,7 8 4 15 8 NW 0 0,0
21.01.2019 05:00:00 -0,1 -0,1 8 4 15 8 NNW 0 0,0
21.01.2019 04:00:00 0,6 0,6 8 4 13 7 N 0 0,0
21.01.2019 03:00:00 1,1 1,1 5 3 11 6 NNE 0 0,0
21.01.2019 02:00:00 1,3 1,3 5 3 11 6 NE 0 0,0
21.01.2019 01:00:00 1,6 1,6 5 3 9 5 NNE 0 -
21.01.2019 00:00:00 1,5 1,5 0 0 11 6 N 0 0,0
20.01.2019 23:00:00 1,6 1,6 8 4 13 7 N 0 0,0
20.01.2019 22:00:00 1,8 1,8 4 2 11 6 NNE 0 0,0
20.01.2019 21:00:00 2,0 2,0 8 4 16 9 NNE 0 0,0
20.01.2019 20:00:00 2,1 2,1 9 5 15 8 N 0 0,0
20.01.2019 19:00:00 2,3 2,3 8 4 11 6 NNE 0 -
20.01.2019 18:00:00 2,5 2,5 8 4 13 7 NE 0 0,0
20.01.2019 17:00:00 2,8 2,8 9 5 13 7 N 0 0,0
20.01.2019 16:00:00 2,9 2,9 4 2 8 4 NE 0 0,0
20.01.2019 15:00:00 2,9 2,9 4 2 8 4 NE 0 0,0
20.01.2019 14:00:00 2,8 2,8 4 2 8 4 NE 0 0,0
20.01.2019 13:00:00 2,8 2,8 4 2 5 3 NE 0 -
20.01.2019 12:00:00 2,4 2,4 4 2 5 3 ENE 0 0,0
20.01.2019 11:00:00 1,6 1,6 2 1 5 3 ENE 0 0,0
20.01.2019 10:00:00 1,1 1,1 0 0 4 2 N 0 0,2
20.01.2019 09:00:00 1,1 1,1 0 0 9 5 N 0 0,4
20.01.2019 08:00:00 0,8 0,8 8 4 9 5 SE 0 0,2
20.01.2019 07:00:00 0,5 0,5 2 1 5 3 E 0 -
20.01.2019 06:00:00 0,5 0,5 4 2 5 3 E 0 0,0
20.01.2019 05:00:00 0,7 0,7 2 1 4 2 E 0 0,0
20.01.2019 04:00:00 0,7 0,6 4 2 8 4 ENE 0 0,0
20.01.2019 03:00:00 0,5 -0,2 0 0 4 2 N 0 0,2
20.01.2019 02:00:00 0,4 -0,6 2 1 4 2 E 0 0,0
20.01.2019 01:00:00 0,4 -1,2 2 1 5 3 E 0 -
20.01.2019 00:00:00 0,4 -1,0 2 1 9 5 ESE 0 0,0
19.01.2019 23:00:00 0,5 -0,8 5 3 11 6 ESE 0 0,0
19.01.2019 22:00:00 0,4 -0,6 5 3 9 5 ESE 0 0,0
19.01.2019 21:00:00 0,3 -1,0 8 4 11 6 SE 0 0,0
19.01.2019 20:00:00 0,1 -1,3 5 3 9 5 ESE 0 0,0
19.01.2019 19:00:00 0,1 -1,5 5 3 11 6 SE 0 -
19.01.2019 18:00:00 0,1 -1,7 8 4 11 6 ESE 0 0,0
19.01.2019 17:00:00 0,3 -1,6 5 3 15 8 ESE 6 0,2
19.01.2019 16:00:00 1,1 -2,1 9 5 16 9 ESE 0 0,0
19.01.2019 15:00:00 2,0 -2,9 9 5 16 9 SSE 0 0,0
19.01.2019 14:00:00 2,3 -2,6 11 6 22 12 SE 30 0,0
19.01.2019 13:00:00 2,2 -1,6 11 6 15 8 SE 42 -
19.01.2019 12:00:00 0,2 -0,4 9 5 15 8 SE 18 0,0
19.01.2019 11:00:00 -0,6 -0,6 0 0 4 2 N 60 0,0
19.01.2019 10:00:00 -3,7 -3,7 0 0 0 0 N 60 0,0
19.01.2019 09:00:00 -7,2 -7,2 0 0 4 2 N 12 0,0
19.01.2019 08:00:00 -8,8 -9,5 2 1 4 2 E 0 0,0
19.01.2019 07:00:00 -8,4 -8,8 2 1 4 2 ESE 0 -
19.01.2019 06:00:00 -8,6 -9,1 4 2 4 2 E 0 0,0
19.01.2019 05:00:00 -8,5 -9,2 4 2 4 2 E 0 0,0
19.01.2019 04:00:00 -7,7 -8,0 2 1 4 2 E 0 0,0
19.01.2019 03:00:00 -7,6 -8,0 0 0 4 2 N 0 0,0
19.01.2019 02:00:00 -6,3 -6,3 0 0 4 2 N 0 0,0
19.01.2019 01:00:00 -7,1 -7,4 2 1 4 2 ESE 0 -
19.01.2019 00:00:00 -6,3 -6,4 2 1 4 2 ESE 0 0,0
18.01.2019 23:00:00 -5,3 -5,3 2 1 4 2 SE 0 0,0
18.01.2019 22:00:00 -4,8 -4,9 0 0 4 2 N 0 0,0
18.01.2019 21:00:00 -4,0 -4,4 2 1 4 2 SE 0 0,0
18.01.2019 20:00:00 -3,1 -3,6 2 1 8 4 E 0 0,0
18.01.2019 19:00:00 -2,5 -3,5 4 2 8 4 E 0 -
18.01.2019 18:00:00 -1,1 -2,8 2 1 11 6 E 0 0,0
18.01.2019 17:00:00 0,3 -2,6 4 2 13 7 ENE 18 0,0
18.01.2019 16:00:00 1,3 -1,4 9 5 16 9 ESE 0 0,0
18.01.2019 15:00:00 1,6 -1,3 8 4 15 8 E 0 0,0
18.01.2019 14:00:00 1,6 -0,8 9 5 16 9 E 18 0,0
18.01.2019 13:00:00 2,9 0,3 8 4 11 6 ESE 60 -
18.01.2019 12:00:00 0,4 -0,5 0 0 4 2 N 42 0,0
18.01.2019 11:00:00 -0,2 -0,2 0 0 4 2 N 60 0,0
18.01.2019 10:00:00 -2,7 -2,7 0 0 8 4 N 24 0,0
18.01.2019 09:00:00 -3,9 -3,9 4 2 5 3 S 12 0,0
18.01.2019 08:00:00 -4,0 -4,0 4 2 9 5 N 0 0,0
18.01.2019 07:00:00 -4,5 -4,5 5 3 11 6 SSE 0 -
18.01.2019 06:00:00 -4,0 -4,0 5 3 9 5 S 0 0,0
18.01.2019 05:00:00 -3,3 -3,3 4 2 8 4 SW 0 0,0
18.01.2019 04:00:00 -3,3 -3,3 8 4 11 6 SSW 0 0,0
18.01.2019 03:00:00 -2,8 -2,8 5 3 8 4 S 0 0,0
18.01.2019 02:00:00 -2,0 -2,0 0 0 8 4 N 0 0,0
18.01.2019 01:00:00 -1,5 -1,5 4 2 8 4 NW 0 -
18.01.2019 00:00:00 -0,8 -0,8 4 2 9 5 WSW 0 0,0
17.01.2019 23:00:00 0,6 0,6 8 4 16 9 NW 0 0,0

tt = Température de l'air
td = dewpoint
ff = Vitesse du vent
fx = gusts
dd = Direction du vent
sd = Ensoleillement
rr = Quantités de précipitations

stations d'obs. à proximité